Time;durP1;ratioP1;P1;durP2;ratioP2;P2;SDS_P1;SDS_P2;PMS_P1;PMS_P2;Temp;Humidity;BMP_temperature;BMP_pressure;BME280_temperature;BME280_humidity;BME280_pressure;Samples;Min_cycle;Max_cycle;Signal;HPM_P1;HPM_P2
2022/07/14 00:00:18;;;;;;;58.97;2.87;;;;;;;;;;5091522;28;20450;-67
2022/07/14 00:02:46;;;;;;;58.87;2.90;;;;;;;;;;5091612;28;20449;-67
2022/07/14 00:05:14;;;;;;;62.30;2.90;;;;;;;;;;5091644;28;20468;-67
2022/07/14 00:07:41;;;;;;;58.83;3.10;;;;;;;;;;5091825;28;20446;-67
2022/07/14 00:10:09;;;;;;;58.40;2.80;;;;;;;;;;5091439;28;20977;-68
2022/07/14 00:12:36;;;;;;;59.23;3.30;;;;;;;;;;5091525;28;20442;-67
2022/07/14 00:15:03;;;;;;;59.73;2.70;;;;;;;;;;5089311;28;21005;-67
2022/07/14 00:17:31;;;;;;;59.53;3.20;;;;;;;;;;5090827;28;20603;-67
2022/07/14 00:19:58;;;;;;;58.50;3.13;;;;;;;;;;5091972;28;20453;-68
2022/07/14 00:22:27;;;;;;;59.30;3.33;;;;;;;;;;5091283;28;20447;-67
2022/07/14 00:24:54;;;;;;;58.90;3.07;;;;;;;;;;5091366;28;20479;-67
2022/07/14 00:27:21;;;;;;;58.57;3.20;;;;;;;;;;5091390;28;20443;-67
2022/07/14 00:29:48;;;;;;;59.20;3.23;;;;;;;;;;5091525;28;20455;-68
2022/07/14 00:32:16;;;;;;;59.90;3.60;;;;;;;;;;5091322;28;20457;-67
2022/07/14 00:34:43;;;;;;;59.63;3.40;;;;;;;;;;5091159;28;20481;-67
2022/07/14 00:37:10;;;;;;;59.57;3.30;;;;;;;;;;5090343;28;20950;-67
2022/07/14 00:39:56;;;;;;;58.87;3.40;;;;;;;;;;5091574;28;20450;-67
2022/07/14 00:42:32;;;;;;;59.00;3.17;;;;;;;;;;5091249;28;20935;-67
2022/07/14 00:44:59;;;;;;;59.47;3.43;;;;;;;;;;5091146;28;20510;-67
2022/07/14 00:47:26;;;;;;;60.67;3.47;;;;;;;;;;5090737;28;20438;-67
2022/07/14 00:49:54;;;;;;;59.70;3.40;;;;;;;;;;5089521;28;20461;-67
2022/07/14 00:52:22;;;;;;;59.47;3.73;;;;;;;;;;5091184;28;20966;-68
2022/07/14 00:54:50;;;;;;;58.80;3.27;;;;;;;;;;5091607;28;20471;-67
2022/07/14 00:57:18;;;;;;;59.83;3.77;;;;;;;;;;5091248;28;20565;-67
2022/07/14 00:59:45;;;;;;;60.47;3.67;;;;;;;;;;5094958;28;20859;-67
2022/07/14 01:02:12;;;;;;;60.17;4.03;;;;;;;;;;5094776;28;20453;-67
2022/07/14 01:04:40;;;;;;;59.57;3.60;;;;;;;;;;5094844;28;20982;-67
2022/07/14 01:07:07;;;;;;;61.10;3.47;;;;;;;;;;5094647;28;20454;-67
2022/07/14 01:09:34;;;;;;;59.90;3.70;;;;;;;;;;5094608;28;20452;-67
2022/07/14 01:12:03;;;;;;;61.50;4.40;;;;;;;;;;5094798;28;20461;-67
2022/07/14 01:14:30;;;;;;;59.40;3.30;;;;;;;;;;5094440;28;20999;-67
2022/07/14 01:16:58;;;;;;;60.33;3.50;;;;;;;;;;5094287;28;20454;-68
2022/07/14 01:19:26;;;;;;;59.23;3.33;;;;;;;;;;5094398;28;20478;-67
2022/07/14 01:21:55;;;;;;;59.20;3.60;;;;;;;;;;5092664;28;20980;-67
2022/07/14 01:24:22;;;;;;;60.63;3.53;;;;;;;;;;5094438;28;20473;-67
2022/07/14 01:26:49;;;;;;;60.50;3.73;;;;;;;;;;5085235;28;20458;-68
2022/07/14 01:29:17;;;;;;;59.43;3.53;;;;;;;;;;5073954;28;20447;-68
2022/07/14 01:31:44;;;;;;;59.47;3.27;;;;;;;;;;5074200;28;20443;-67
2022/07/14 01:34:11;;;;;;;59.27;3.13;;;;;;;;;;5073829;28;20482;-67
2022/07/14 01:36:39;;;;;;;59.47;2.97;;;;;;;;;;5073435;28;20701;-67
2022/07/14 01:39:08;;;;;;;59.57;3.50;;;;;;;;;;5073656;28;20483;-67
2022/07/14 01:41:35;;;;;;;60.60;3.67;;;;;;;;;;5073893;28;20959;-67
2022/07/14 01:44:02;;;;;;;59.50;3.77;;;;;;;;;;5073872;28;20480;-68
2022/07/14 01:46:30;;;;;;;59.47;3.77;;;;;;;;;;5073903;28;20449;-67
2022/07/14 01:48:57;;;;;;;59.13;3.70;;;;;;;;;;5073609;28;20451;-67
2022/07/14 01:51:24;;;;;;;59.53;4.00;;;;;;;;;;5073811;28;20590;-67
2022/07/14 01:53:51;;;;;;;59.90;3.67;;;;;;;;;;5084538;28;20815;-67
2022/07/14 01:56:21;;;;;;;58.77;3.00;;;;;;;;;;5094050;28;20479;-68
2022/07/14 01:58:48;;;;;;;59.53;3.20;;;;;;;;;;5093072;28;20495;-68
2022/07/14 02:04:01;;;;;;;59.47;3.27;;;;;;;;;;5093685;28;20532;-67
2022/07/14 02:06:29;;;;;;;59.30;3.53;;;;;;;;;;5093853;28;20503;-67
2022/07/14 02:08:56;;;;;;;63.30;4.07;;;;;;;;;;5092550;28;20465;-67
2022/07/14 02:14:09;;;;;;;59.37;3.33;;;;;;;;;;5093345;28;20448;-67
2022/07/14 02:16:36;;;;;;;59.27;3.60;;;;;;;;;;5093557;28;20458;-68
2022/07/14 02:19:04;;;;;;;59.00;3.23;;;;;;;;;;5092763;28;20497;-67
2022/07/14 02:21:31;;;;;;;59.50;3.50;;;;;;;;;;5093556;28;20457;-67
2022/07/14 02:23:59;;;;;;;59.30;3.10;;;;;;;;;;5093325;28;20488;-67
2022/07/14 02:26:27;;;;;;;59.50;3.40;;;;;;;;;;5091270;28;20560;-68
2022/07/14 02:28:55;;;;;;;59.10;3.80;;;;;;;;;;5093104;28;20446;-67
2022/07/14 02:31:22;;;;;;;59.17;3.43;;;;;;;;;;5093407;28;20833;-67
2022/07/14 02:33:49;;;;;;;59.37;3.60;;;;;;;;;;5092830;28;20481;-67
2022/07/14 02:36:16;;;;;;;59.10;3.23;;;;;;;;;;5093234;28;20870;-67
2022/07/14 02:38:43;;;;;;;59.00;3.10;;;;;;;;;;5092278;28;20496;-67
2022/07/14 02:41:11;;;;;;;59.10;3.60;;;;;;;;;;5093363;28;20446;-67
2022/07/14 02:43:40;;;;;;;59.30;3.30;;;;;;;;;;5092790;28;20476;-67
2022/07/14 02:46:07;;;;;;;59.10;3.30;;;;;;;;;;5093088;28;20444;-67
2022/07/14 02:48:34;;;;;;;59.17;3.60;;;;;;;;;;5092812;28;20447;-67
2022/07/14 02:51:02;;;;;;;60.60;3.70;;;;;;;;;;5092742;28;20453;-67
2022/07/14 02:53:29;;;;;;;61.17;3.80;;;;;;;;;;5092525;28;20487;-67
2022/07/14 02:55:56;;;;;;;60.27;3.47;;;;;;;;;;5092406;28;20887;-67
2022/07/14 02:58:25;;;;;;;61.10;3.50;;;;;;;;;;5089478;28;20585;-67
2022/07/14 03:00:54;;;;;;;59.37;3.50;;;;;;;;;;5092780;28;20455;-67
2022/07/14 03:03:21;;;;;;;59.10;3.27;;;;;;;;;;5092585;28;20451;-67
2022/07/14 03:05:48;;;;;;;60.10;3.80;;;;;;;;;;5092887;28;20446;-67
2022/07/14 03:08:15;;;;;;;59.10;3.30;;;;;;;;;;5092163;28;20452;-68
2022/07/14 03:10:42;;;;;;;58.90;3.30;;;;;;;;;;5092473;28;21018;-67
2022/07/14 03:13:10;;;;;;;59.20;3.47;;;;;;;;;;5092196;28;20450;-67
2022/07/14 03:15:37;;;;;;;59.23;3.57;;;;;;;;;;5092509;28;20449;-68
2022/07/14 03:18:06;;;;;;;59.40;3.77;;;;;;;;;;5091533;28;20449;-67
2022/07/14 03:20:33;;;;;;;58.77;3.20;;;;;;;;;;5092393;28;20446;-67
2022/07/14 03:23:00;;;;;;;58.83;3.43;;;;;;;;;;5092510;28;20957;-67
2022/07/14 03:25:27;;;;;;;59.27;3.50;;;;;;;;;;5092177;28;21027;-67
2022/07/14 03:27:55;;;;;;;60.20;3.50;;;;;;;;;;5090546;28;20442;-67
2022/07/14 03:30:22;;;;;;;59.20;3.33;;;;;;;;;;5091540;28;20459;-67
2022/07/14 03:32:49;;;;;;;59.53;3.70;;;;;;;;;;5091987;28;20449;-67
2022/07/14 03:35:17;;;;;;;59.20;3.30;;;;;;;;;;5091903;28;21001;-67
2022/07/14 03:37:44;;;;;;;59.30;3.50;;;;;;;;;;5088635;28;20469;-67
2022/07/14 03:40:13;;;;;;;59.40;3.70;;;;;;;;;;5071368;28;20853;-67
2022/07/14 03:42:40;;;;;;;59.60;3.90;;;;;;;;;;5071780;28;20501;-67
2022/07/14 03:45:07;;;;;;;59.50;3.60;;;;;;;;;;5071515;28;20983;-68
2022/07/14 03:47:34;;;;;;;60.80;3.63;;;;;;;;;;5071350;28;20455;-67
2022/07/14 03:50:01;;;;;;;59.50;3.40;;;;;;;;;;5071468;28;20821;-67
2022/07/14 03:52:30;;;;;;;59.40;3.40;;;;;;;;;;5071681;28;20456;-67
2022/07/14 03:54:57;;;;;;;59.30;3.70;;;;;;;;;;5071657;28;20468;-67
2022/07/14 03:57:24;;;;;;;59.27;3.40;;;;;;;;;;5071318;28;20943;-67
2022/07/14 03:59:51;;;;;;;59.27;3.40;;;;;;;;;;5070914;28;20551;-67
2022/07/14 04:02:18;;;;;;;59.60;4.20;;;;;;;;;;5085569;28;20842;-67
2022/07/14 04:04:47;;;;;;;59.57;3.77;;;;;;;;;;5091504;28;20480;-68
2022/07/14 04:07:14;;;;;;;59.17;3.27;;;;;;;;;;5091428;28;20565;-67
2022/07/14 04:09:42;;;;;;;59.43;3.60;;;;;;;;;;5091787;28;20447;-67
2022/07/14 04:12:09;;;;;;;58.90;3.40;;;;;;;;;;5091618;28;20455;-67
2022/07/14 04:14:37;;;;;;;59.83;3.43;;;;;;;;;;5091430;28;20459;-67
2022/07/14 04:17:04;;;;;;;59.40;3.50;;;;;;;;;;5092007;28;20453;-68
2022/07/14 04:19:31;;;;;;;59.30;3.17;;;;;;;;;;5090677;28;20487;-67
2022/07/14 04:21:58;;;;;;;59.50;3.70;;;;;;;;;;5091621;28;20445;-67
2022/07/14 04:24:25;;;;;;;59.60;3.93;;;;;;;;;;5091496;28;20493;-67
2022/07/14 04:26:54;;;;;;;59.23;3.37;;;;;;;;;;5091680;28;20459;-67
2022/07/14 04:29:21;;;;;;;59.37;3.40;;;;;;;;;;5090923;28;20530;-67
2022/07/14 04:31:48;;;;;;;59.67;3.60;;;;;;;;;;5091715;28;20455;-67
2022/07/14 04:34:15;;;;;;;59.77;3.53;;;;;;;;;;5093212;28;20618;-67
2022/07/14 04:36:43;;;;;;;59.90;3.17;;;;;;;;;;5095427;28;21014;-67
2022/07/14 04:39:10;;;;;;;59.20;3.43;;;;;;;;;;5094440;28;20538;-67
2022/07/14 04:41:38;;;;;;;59.07;3.40;;;;;;;;;;5095301;28;20442;-67
2022/07/14 04:44:06;;;;;;;59.10;3.50;;;;;;;;;;5094746;28;20558;-67
2022/07/14 04:46:33;;;;;;;59.10;3.40;;;;;;;;;;5095534;28;20909;-67
2022/07/14 04:52:03;;;;;;;60.00;3.80;;;;;;;;;;5095289;28;20780;-67
2022/07/14 04:54:31;;;;;;;59.00;3.57;;;;;;;;;;5094811;28;20473;-67
2022/07/14 04:56:58;;;;;;;59.50;3.43;;;;;;;;;;5095185;28;20447;-68
2022/07/14 04:59:26;;;;;;;59.60;3.90;;;;;;;;;;5094580;28;20863;-67
2022/07/14 05:01:53;;;;;;;59.93;3.70;;;;;;;;;;5095121;28;20449;-67
2022/07/14 05:04:21;;;;;;;59.77;3.97;;;;;;;;;;5094757;28;20482;-67
2022/07/14 05:06:49;;;;;;;60.60;4.03;;;;;;;;;;5092444;28;20449;-67
2022/07/14 05:09:17;;;;;;;59.47;3.70;;;;;;;;;;5094369;28;20488;-68
2022/07/14 05:11:45;;;;;;;59.60;3.70;;;;;;;;;;5094805;28;20445;-67
2022/07/14 05:14:12;;;;;;;61.10;4.20;;;;;;;;;;5094619;28;20470;-67
2022/07/14 05:16:40;;;;;;;60.90;3.83;;;;;;;;;;5094760;28;20821;-67
2022/07/14 05:19:07;;;;;;;60.03;3.70;;;;;;;;;;5094029;28;20457;-67
2022/07/14 05:21:36;;;;;;;59.90;3.60;;;;;;;;;;5093840;28;20587;-67
2022/07/14 05:24:03;;;;;;;59.20;3.70;;;;;;;;;;5094683;28;20473;-67
2022/07/14 05:26:30;;;;;;;58.47;3.50;;;;;;;;;;5094382;28;20938;-67
2022/07/14 05:28:57;;;;;;;59.10;3.90;;;;;;;;;;5094282;28;20485;-67
2022/07/14 05:31:24;;;;;;;58.87;3.27;;;;;;;;;;5094112;28;20452;-68
2022/07/14 05:33:53;;;;;;;59.20;3.60;;;;;;;;;;5094277;28;20854;-67
2022/07/14 05:36:21;;;;;;;59.07;3.20;;;;;;;;;;5091457;28;20970;-67
2022/07/14 05:38:48;;;;;;;59.33;3.17;;;;;;;;;;5093586;28;20451;-67
2022/07/14 05:41:17;;;;;;;60.07;3.33;;;;;;;;;;5093476;28;20453;-67
2022/07/14 05:43:44;;;;;;;59.87;3.40;;;;;;;;;;5092977;28;20557;-67
2022/07/14 05:46:13;;;;;;;59.93;3.80;;;;;;;;;;5093480;28;20966;-68
2022/07/14 05:48:41;;;;;;;63.40;3.30;;;;;;;;;;5094063;28;20463;-67
2022/07/14 05:51:11;;;;;;;59.10;3.47;;;;;;;;;;5094013;28;20450;-67
2022/07/14 05:53:38;;;;;;;59.20;3.40;;;;;;;;;;5094033;28;20558;-67
2022/07/14 05:56:07;;;;;;;59.77;3.67;;;;;;;;;;5093622;28;20473;-67
2022/07/14 05:58:35;;;;;;;59.40;3.37;;;;;;;;;;5093769;28;20827;-66
2022/07/14 06:01:02;;;;;;;58.57;3.50;;;;;;;;;;5093295;28;20450;-67
2022/07/14 06:03:29;;;;;;;59.10;3.30;;;;;;;;;;5093566;28;21069;-67
2022/07/14 06:05:57;;;;;;;60.67;3.63;;;;;;;;;;5093699;28;20452;-67
2022/07/14 06:08:25;;;;;;;59.30;3.27;;;;;;;;;;5091244;28;20451;-67
2022/07/14 06:10:55;;;;;;;61.00;3.00;;;;;;;;;;5093632;28;20586;-67
2022/07/14 06:13:22;;;;;;;59.80;3.43;;;;;;;;;;5093588;28;20541;-67
2022/07/14 06:15:49;;;;;;;60.10;3.20;;;;;;;;;;5093346;28;20447;-67
2022/07/14 06:18:17;;;;;;;59.50;3.67;;;;;;;;;;5092670;28;21043;-67
2022/07/14 06:20:44;;;;;;;59.90;3.70;;;;;;;;;;5092811;28;20450;-67
2022/07/14 06:23:11;;;;;;;59.70;4.00;;;;;;;;;;5093412;28;20453;-67
2022/07/14 06:25:40;;;;;;;61.77;3.90;;;;;;;;;;5093135;28;20454;-67
2022/07/14 06:28:07;;;;;;;59.53;3.27;;;;;;;;;;5093115;28;20446;-68
2022/07/14 06:30:34;;;;;;;59.07;3.30;;;;;;;;;;5092418;28;20820;-68
2022/07/14 06:33:02;;;;;;;59.10;3.60;;;;;;;;;;5093179;28;20533;-67
2022/07/14 06:35:29;;;;;;;59.37;3.60;;;;;;;;;;5093183;28;20470;-68
2022/07/14 06:37:57;;;;;;;59.20;3.10;;;;;;;;;;5092966;28;20442;-68
2022/07/14 06:40:24;;;;;;;59.00;3.40;;;;;;;;;;5090194;28;20496;-68
2022/07/14 06:42:52;;;;;;;58.90;3.07;;;;;;;;;;5092192;28;20480;-68
2022/07/14 06:45:20;;;;;;;59.80;3.97;;;;;;;;;;5093033;28;20471;-68
2022/07/14 06:47:47;;;;;;;59.47;3.47;;;;;;;;;;5092898;28;20450;-68
2022/07/14 06:50:14;;;;;;;58.33;3.10;;;;;;;;;;5092851;28;20493;-68
2022/07/14 06:52:42;;;;;;;58.77;3.20;;;;;;;;;;5092385;28;20442;-68
2022/07/14 06:55:10;;;;;;;59.37;3.20;;;;;;;;;;5092137;28;20475;-68
2022/07/14 06:57:37;;;;;;;58.80;3.17;;;;;;;;;;5092383;28;20469;-67
2022/07/14 07:00:07;;;;;;;58.87;3.20;;;;;;;;;;5092715;28;20703;-68
2022/07/14 07:02:35;;;;;;;60.47;3.20;;;;;;;;;;5092227;28;20470;-68
2022/07/14 07:07:46;;;;;;;58.60;3.23;;;;;;;;;;5060690;28;20515;-68
2022/07/14 07:10:14;;;;;;;58.27;3.00;;;;;;;;;;5090600;28;21101;-67
2022/07/14 07:12:41;;;;;;;59.13;3.40;;;;;;;;;;5092137;28;21027;-68
2022/07/14 07:15:10;;;;;;;58.27;3.10;;;;;;;;;;5092341;28;20560;-68
2022/07/14 07:17:37;;;;;;;59.80;3.33;;;;;;;;;;5091775;28;20817;-68
2022/07/14 07:20:05;;;;;;;58.50;2.90;;;;;;;;;;5092371;28;20444;-66
2022/07/14 07:22:32;;;;;;;58.43;3.23;;;;;;;;;;5091827;28;20460;-67
2022/07/14 07:24:59;;;;;;;60.07;3.43;;;;;;;;;;5092444;28;20555;-68
2022/07/14 07:27:26;;;;;;;59.07;3.53;;;;;;;;;;5091479;28;20476;-65
2022/07/14 07:29:54;;;;;;;59.60;3.53;;;;;;;;;;5092017;28;20485;-66
2022/07/14 07:32:22;;;;;;;58.90;3.00;;;;;;;;;;5092161;28;20456;-66
2022/07/14 07:34:49;;;;;;;58.90;3.20;;;;;;;;;;5091870;28;20511;-66
2022/07/14 07:37:16;;;;;;;61.47;3.40;;;;;;;;;;5091701;28;20955;-65
2022/07/14 07:39:44;;;;;;;58.47;2.87;;;;;;;;;;5091432;28;20795;-66
2022/07/14 07:42:11;;;;;;;59.80;3.27;;;;;;;;;;5089101;28;20456;-66
2022/07/14 07:44:38;;;;;;;59.30;3.03;;;;;;;;;;5091961;28;20476;-66
2022/07/14 07:47:05;;;;;;;58.87;2.83;;;;;;;;;;5092244;28;20461;-66
2022/07/14 07:49:34;;;;;;;59.10;3.23;;;;;;;;;;5091414;28;20446;-66
2022/07/14 07:52:02;;;;;;;58.50;2.60;;;;;;;;;;5091297;28;20458;-68
2022/07/14 07:54:30;;;;;;;58.17;2.60;;;;;;;;;;5091620;28;20473;-68
2022/07/14 07:56:59;;;;;;;58.50;2.60;;;;;;;;;;5091670;28;20450;-66
2022/07/14 07:59:27;;;;;;;58.67;2.80;;;;;;;;;;5091985;28;20486;-68
2022/07/14 08:01:54;;;;;;;59.00;2.83;;;;;;;;;;5090664;28;20465;-66
2022/07/14 08:04:22;;;;;;;58.70;3.37;;;;;;;;;;5091344;28;20477;-66
2022/07/14 08:06:50;;;;;;;58.20;2.40;;;;;;;;;;5090983;28;20557;-67
2022/07/14 08:09:17;;;;;;;58.33;2.60;;;;;;;;;;5091332;28;20450;-67
2022/07/14 08:11:45;;;;;;;59.27;2.90;;;;;;;;;;5091698;28;20569;-67
2022/07/14 08:16:58;;;;;;;58.40;2.57;;;;;;;;;;5091008;28;20507;-66
2022/07/14 08:19:25;;;;;;;58.90;3.53;;;;;;;;;;5091585;28;20448;-67
2022/07/14 08:21:54;;;;;;;58.00;2.70;;;;;;;;;;5091580;28;20485;-66
2022/07/14 08:24:23;;;;;;;59.57;2.50;;;;;;;;;;5091216;28;20929;-67
2022/07/14 08:26:50;;;;;;;58.07;2.50;;;;;;;;;;5091343;28;20820;-67
2022/07/14 08:29:18;;;;;;;58.60;3.10;;;;;;;;;;5090669;28;20458;-67
2022/07/14 08:31:45;;;;;;;58.33;2.60;;;;;;;;;;5091587;28;20483;-66
2022/07/14 08:34:12;;;;;;;58.53;2.87;;;;;;;;;;5091164;28;20501;-67
2022/07/14 08:36:39;;;;;;;59.70;2.70;;;;;;;;;;5091521;28;20453;-66
2022/07/14 08:39:08;;;;;;;58.80;3.23;;;;;;;;;;5090709;28;20538;-67
2022/07/14 08:41:36;;;;;;;60.70;2.60;;;;;;;;;;5091047;28;20489;-67
2022/07/14 08:44:04;;;;;;;59.13;2.77;;;;;;;;;;5088549;28;20485;-67
2022/07/14 08:46:32;;;;;;;61.07;2.90;;;;;;;;;;5091524;28;20887;-68
2022/07/14 08:48:59;;;;;;;58.77;2.90;;;;;;;;;;5091155;28;20453;-68
2022/07/14 08:51:26;;;;;;;58.40;2.83;;;;;;;;;;5089643;28;21083;-67
2022/07/14 08:53:54;;;;;;;58.10;2.60;;;;;;;;;;5070901;28;20470;-68
2022/07/14 08:56:22;;;;;;;58.10;2.60;;;;;;;;;;5070881;28;20447;-68
2022/07/14 08:58:50;;;;;;;58.77;2.73;;;;;;;;;;5071108;28;20447;-68
2022/07/14 09:01:18;;;;;;;58.07;2.70;;;;;;;;;;5071042;28;20811;-68
2022/07/14 09:03:45;;;;;;;59.80;2.70;;;;;;;;;;5069879;28;20518;-68
2022/07/14 09:06:12;;;;;;;58.50;2.70;;;;;;;;;;5071025;28;20461;-68
2022/07/14 09:08:53;;;;;;;57.87;2.50;;;;;;;;;;5070533;28;20552;-68
2022/07/14 09:11:20;;;;;;;58.00;2.50;;;;;;;;;;5070985;28;20482;-68
2022/07/14 09:13:49;;;;;;;57.87;2.47;;;;;;;;;;5070462;28;20550;-68
2022/07/14 09:16:17;;;;;;;58.17;2.53;;;;;;;;;;5079793;28;20455;-68
2022/07/14 09:19:01;;;;;;;58.40;2.90;;;;;;;;;;5092441;28;20543;-67
2022/07/14 09:21:28;;;;;;;60.07;2.93;;;;;;;;;;5094863;28;20430;-68
2022/07/14 09:23:58;;;;;;;58.40;2.40;;;;;;;;;;5094085;28;20502;-68
2022/07/14 09:26:25;;;;;;;57.83;2.43;;;;;;;;;;5093980;28;20457;-68
2022/07/14 09:28:55;;;;;;;57.87;2.50;;;;;;;;;;5094352;28;20450;-66
2022/07/14 09:31:24;;;;;;;57.80;2.50;;;;;;;;;;5094385;28;21016;-65
2022/07/14 09:33:51;;;;;;;58.77;3.07;;;;;;;;;;5094016;28;20478;-68
2022/07/14 09:36:26;;;;;;;57.80;2.40;;;;;;;;;;5094158;28;20446;-68
2022/07/14 09:38:53;;;;;;;58.20;2.87;;;;;;;;;;5094017;28;20533;-68
2022/07/14 09:41:20;;;;;;;58.83;2.67;;;;;;;;;;5094382;28;20445;-68
2022/07/14 09:44:09;;;;;;;58.00;2.70;;;;;;;;;;5093638;28;20987;-68
2022/07/14 09:46:49;;;;;;;58.60;2.87;;;;;;;;;;5091675;28;20965;-68
2022/07/14 09:49:17;;;;;;;59.10;3.00;;;;;;;;;;5093253;28;20957;-68
2022/07/14 09:51:55;;;;;;;59.97;3.10;;;;;;;;;;5093881;28;21085;-68
2022/07/14 09:54:37;;;;;;;57.60;2.53;;;;;;;;;;5093774;28;20561;-68
2022/07/14 09:57:04;;;;;;;58.70;2.60;;;;;;;;;;5093931;28;20533;-68
2022/07/14 09:59:33;;;;;;;58.37;2.67;;;;;;;;;;5093539;28;20452;-68
2022/07/14 10:02:00;;;;;;;57.90;2.83;;;;;;;;;;5093560;28;20445;-68
2022/07/14 10:04:27;;;;;;;59.30;3.00;;;;;;;;;;5093264;28;20492;-68
2022/07/14 10:06:54;;;;;;;58.20;2.83;;;;;;;;;;5093470;28;20473;-68
2022/07/14 10:09:21;;;;;;;57.80;2.53;;;;;;;;;;5093486;28;20502;-68
2022/07/14 10:11:49;;;;;;;58.37;3.00;;;;;;;;;;5093847;28;20488;-68
2022/07/14 10:14:16;;;;;;;58.77;2.80;;;;;;;;;;5093704;28;20462;-66
2022/07/14 10:16:46;;;;;;;58.10;2.70;;;;;;;;;;5093451;28;20449;-66
2022/07/14 10:19:13;;;;;;;57.97;3.00;;;;;;;;;;5090721;28;20838;-66
2022/07/14 10:21:40;;;;;;;58.20;2.63;;;;;;;;;;5093382;28;20439;-66
2022/07/14 10:24:07;;;;;;;60.10;3.37;;;;;;;;;;5093010;28;20471;-66
2022/07/14 10:26:35;;;;;;;58.37;2.50;;;;;;;;;;5093590;28;20474;-66
2022/07/14 10:29:04;;;;;;;57.97;2.53;;;;;;;;;;5093346;28;20442;-67
2022/07/14 10:31:34;;;;;;;57.37;2.70;;;;;;;;;;5092807;28;20485;-67
2022/07/14 10:34:08;;;;;;;57.83;2.50;;;;;;;;;;5092321;28;20569;-67
2022/07/14 10:36:38;;;;;;;57.20;2.13;;;;;;;;;;5093287;28;20442;-66
2022/07/14 10:39:10;;;;;;;57.60;2.40;;;;;;;;;;5093207;28;20897;-66
2022/07/14 10:41:57;;;;;;;57.37;2.50;;;;;;;;;;5093089;28;20939;-67
2022/07/14 10:44:26;;;;;;;57.27;2.30;;;;;;;;;;5091896;28;20467;-67
2022/07/14 10:47:07;;;;;;;57.70;2.43;;;;;;;;;;5092662;28;21018;-67
2022/07/14 10:50:02;;;;;;;56.57;2.40;;;;;;;;;;5090530;28;20942;-67
2022/07/14 10:52:29;;;;;;;57.00;2.60;;;;;;;;;;5092818;28;20484;-68
2022/07/14 10:55:12;;;;;;;56.70;2.30;;;;;;;;;;5092593;28;20469;-68
2022/07/14 10:57:40;;;;;;;56.37;2.20;;;;;;;;;;5092647;28;20545;-68
2022/07/14 11:00:07;;;;;;;56.90;2.40;;;;;;;;;;5092326;28;20446;-67
2022/07/14 11:02:37;;;;;;;56.17;2.20;;;;;;;;;;5092546;28;21028;-68
2022/07/14 11:05:12;;;;;;;56.07;2.57;;;;;;;;;;5092214;28;20902;-67
2022/07/14 11:07:40;;;;;;;56.40;2.10;;;;;;;;;;5092459;28;20808;-67
2022/07/14 11:10:30;;;;;;;56.80;2.30;;;;;;;;;;5092782;28;20446;-68
2022/07/14 11:13:10;;;;;;;56.47;2.40;;;;;;;;;;5092073;28;20482;-68
2022/07/14 11:15:38;;;;;;;59.10;2.57;;;;;;;;;;5092663;28;20455;-68
2022/07/14 11:18:20;;;;;;;56.70;2.57;;;;;;;;;;5092018;28;20504;-68
2022/07/14 11:20:53;;;;;;;58.70;2.50;;;;;;;;;;5089848;28;20854;-67
2022/07/14 11:23:21;;;;;;;59.27;2.10;;;;;;;;;;5091668;28;20534;-67
2022/07/14 11:25:49;;;;;;;55.83;2.03;;;;;;;;;;5091878;28;20454;-67
2022/07/14 11:28:31;;;;;;;56.70;2.67;;;;;;;;;;5091925;28;20443;-68
2022/07/14 11:31:09;;;;;;;57.20;2.47;;;;;;;;;;5092068;28;20474;-67
2022/07/14 11:33:36;;;;;;;56.90;2.40;;;;;;;;;;5091746;28;20531;-68
2022/07/14 11:36:19;;;;;;;55.93;2.50;;;;;;;;;;5091828;28;20855;-67
2022/07/14 11:38:46;;;;;;;56.17;2.20;;;;;;;;;;5091657;28;20442;-67
2022/07/14 11:41:13;;;;;;;57.07;2.37;;;;;;;;;;5091576;28;20578;-67
2022/07/14 11:43:44;;;;;;;57.63;2.20;;;;;;;;;;5088609;28;20466;-67
2022/07/14 11:46:12;;;;;;;55.97;2.27;;;;;;;;;;5090877;28;20942;-67
2022/07/14 11:48:40;;;;;;;56.17;2.50;;;;;;;;;;5091644;28;20903;-67
2022/07/14 11:51:09;;;;;;;57.60;2.47;;;;;;;;;;5091751;28;20457;-67
2022/07/14 11:53:38;;;;;;;57.23;2.63;;;;;;;;;;5091762;28;20534;-67
2022/07/14 11:56:07;;;;;;;57.07;2.10;;;;;;;;;;5091720;28;20453;-67
2022/07/14 11:58:35;;;;;;;58.30;2.10;;;;;;;;;;5091361;28;20450;-67
2022/07/14 12:01:03;;;;;;;57.93;2.23;;;;;;;;;;5091817;28;20551;-67
2022/07/14 12:03:32;;;;;;;57.83;2.50;;;;;;;;;;5091628;28;20552;-67
2022/07/14 12:06:00;;;;;;;56.37;2.33;;;;;;;;;;5091431;28;20442;-67
2022/07/14 12:08:28;;;;;;;56.53;2.40;;;;;;;;;;5091306;28;20537;-66
2022/07/14 12:11:01;;;;;;;56.70;2.23;;;;;;;;;;5091505;28;20446;-66
2022/07/14 12:13:28;;;;;;;56.47;2.23;;;;;;;;;;5089318;28;20829;-67
2022/07/14 12:16:01;;;;;;;57.70;2.80;;;;;;;;;;5091676;28;20476;-66
2022/07/14 12:18:30;;;;;;;56.60;2.50;;;;;;;;;;5091241;28;20450;-67
2022/07/14 12:20:59;;;;;;;57.17;2.67;;;;;;;;;;5091227;28;20503;-67
2022/07/14 12:23:26;;;;;;;59.67;2.70;;;;;;;;;;5091580;28;20457;-67
2022/07/14 12:25:53;;;;;;;56.37;2.40;;;;;;;;;;5091551;28;20452;-67
2022/07/14 12:28:22;;;;;;;55.67;2.13;;;;;;;;;;5090979;28;20458;-67
2022/07/14 12:30:51;;;;;;;58.67;2.70;;;;;;;;;;5091090;28;20442;-67
2022/07/14 12:33:20;;;;;;;56.57;2.50;;;;;;;;;;5090965;28;20474;-67
2022/07/14 12:35:48;;;;;;;60.10;2.63;;;;;;;;;;5091678;28;20450;-66
2022/07/14 12:38:17;;;;;;;57.10;2.30;;;;;;;;;;5091273;28;20442;-66
2022/07/14 12:40:44;;;;;;;58.00;2.73;;;;;;;;;;5091352;28;20451;-66
2022/07/14 12:43:11;;;;;;;56.70;2.30;;;;;;;;;;5090719;28;20792;-66
2022/07/14 12:45:57;;;;;;;57.27;2.80;;;;;;;;;;5088725;28;20462;-66
2022/07/14 12:48:25;;;;;;;59.50;3.00;;;;;;;;;;5090544;28;20450;-65
2022/07/14 12:50:52;;;;;;;57.60;2.87;;;;;;;;;;5091347;28;20450;-65
2022/07/14 12:53:19;;;;;;;57.47;2.70;;;;;;;;;;5092054;28;20446;-66
2022/07/14 12:55:48;;;;;;;57.20;2.30;;;;;;;;;;5092119;28;20903;-65
2022/07/14 12:58:15;;;;;;;58.67;2.87;;;;;;;;;;5094923;28;20504;-66
2022/07/14 13:00:44;;;;;;;59.47;3.43;;;;;;;;;;5095203;28;20446;-65
2022/07/14 13:03:12;;;;;;;59.20;3.00;;;;;;;;;;5094942;28;20486;-65
2022/07/14 13:05:45;;;;;;;57.57;2.50;;;;;;;;;;5095045;28;20899;-66
2022/07/14 13:08:31;;;;;;;59.37;2.70;;;;;;;;;;5094256;28;20446;-65
2022/07/14 13:10:58;;;;;;;57.57;2.40;;;;;;;;;;5094599;28;20452;-65
2022/07/14 13:13:30;;;;;;;57.57;2.60;;;;;;;;;;5094792;28;20442;-66
2022/07/14 13:16:12;;;;;;;58.60;2.77;;;;;;;;;;5094832;28;20446;-65
2022/07/14 13:18:39;;;;;;;59.03;2.77;;;;;;;;;;5094506;28;20521;-65
2022/07/14 13:21:08;;;;;;;57.67;2.40;;;;;;;;;;5094717;28;20442;-66
2022/07/14 13:23:36;;;;;;;57.60;2.33;;;;;;;;;;5094284;28;20471;-65
2022/07/14 13:26:05;;;;;;;58.60;2.43;;;;;;;;;;5091971;28;20474;-66
2022/07/14 13:28:35;;;;;;;57.30;2.40;;;;;;;;;;5093802;28;20450;-66
2022/07/14 13:31:03;;;;;;;64.23;2.30;;;;;;;;;;5094365;28;20446;-65
2022/07/14 13:33:30;;;;;;;64.30;2.73;;;;;;;;;;5094081;28;20458;-67
2022/07/14 13:36:02;;;;;;;57.93;2.03;;;;;;;;;;5094325;28;20446;-64
2022/07/14 13:38:30;;;;;;;57.40;2.00;;;;;;;;;;5094484;28;20447;-66
2022/07/14 13:40:57;;;;;;;63.10;3.00;;;;;;;;;;5094221;28;20450;-66
2022/07/14 13:43:25;;;;;;;57.60;2.30;;;;;;;;;;5093889;28;20490;-65
2022/07/14 13:45:52;;;;;;;57.87;2.63;;;;;;;;;;5094077;28;20449;-66
2022/07/14 13:48:19;;;;;;;58.30;2.67;;;;;;;;;;5093621;28;20511;-66
2022/07/14 13:53:33;;;;;;;57.87;2.50;;;;;;;;;;5093641;28;20449;-66
2022/07/14 13:56:01;;;;;;;57.97;2.80;;;;;;;;;;5094033;28;20916;-66
2022/07/14 13:58:28;;;;;;;58.00;3.00;;;;;;;;;;5091294;28;20458;-67
2022/07/14 14:00:55;;;;;;;57.57;2.30;;;;;;;;;;5093739;28;20446;-66
2022/07/14 14:03:23;;;;;;;59.53;2.87;;;;;;;;;;5093610;28;20478;-65
2022/07/14 14:05:50;;;;;;;58.17;2.70;;;;;;;;;;5092427;28;20446;-64
2022/07/14 14:08:17;;;;;;;60.73;3.10;;;;;;;;;;5093184;28;20446;-65
2022/07/14 14:10:46;;;;;;;57.30;2.63;;;;;;;;;;5093249;28;20457;-65
2022/07/14 14:13:13;;;;;;;57.30;2.40;;;;;;;;;;5093377;28;20454;-65
2022/07/14 14:15:40;;;;;;;57.27;2.43;;;;;;;;;;5092912;28;20447;-65
2022/07/14 14:18:08;;;;;;;58.17;2.30;;;;;;;;;;5093360;28;20535;-65
2022/07/14 14:20:35;;;;;;;58.37;2.30;;;;;;;;;;5093640;28;20525;-65
2022/07/14 14:23:02;;;;;;;61.97;2.67;;;;;;;;;;5093389;28;20482;-65
2022/07/14 14:25:29;;;;;;;57.50;2.20;;;;;;;;;;5093622;28;20470;-65
2022/07/14 14:27:57;;;;;;;57.27;2.40;;;;;;;;;;5092883;28;20519;-66
2022/07/14 14:30:25;;;;;;;57.47;2.27;;;;;;;;;;5090870;28;20485;-65
2022/07/14 14:32:52;;;;;;;57.90;2.40;;;;;;;;;;5093187;28;20442;-67
2022/07/14 14:35:19;;;;;;;58.00;2.30;;;;;;;;;;5093165;28;20557;-65
2022/07/14 14:37:46;;;;;;;57.23;2.27;;;;;;;;;;5092808;28;20943;-66
2022/07/14 14:40:13;;;;;;;57.27;2.63;;;;;;;;;;5092935;28;20871;-66
2022/07/14 14:42:40;;;;;;;57.60;2.87;;;;;;;;;;5092928;28;21006;-66
2022/07/14 14:45:11;;;;;;;57.40;2.70;;;;;;;;;;5092909;28;20462;-66
2022/07/14 14:47:39;;;;;;;59.90;2.60;;;;;;;;;;5092697;28;20529;-65
2022/07/14 14:50:06;;;;;;;61.40;3.10;;;;;;;;;;5092426;28;20447;-66
2022/07/14 14:52:33;;;;;;;56.73;2.57;;;;;;;;;;5092610;28;20449;-65
2022/07/14 14:55:01;;;;;;;57.03;2.73;;;;;;;;;;5092584;28;20497;-66